createdAt,value
2022-08-22T00:00:13.771Z,0.88
2022-08-22T00:02:45.811Z,1.00
2022-08-22T00:02:48.245Z,1.17
2022-08-22T00:05:56.243Z,0.95
2022-08-22T00:08:29.217Z,1.83
2022-08-22T00:11:03.948Z,1.08
2022-08-22T00:13:37.702Z,1.08
2022-08-22T00:16:12.336Z,1.05
2022-08-22T00:18:53.833Z,1.00
2022-08-22T00:21:27.972Z,1.15
2022-08-22T00:24:10.063Z,0.90
2022-08-22T00:26:45.604Z,0.90
2022-08-22T00:29:17.787Z,1.10
2022-08-22T00:31:49.916Z,1.88
2022-08-22T00:34:30.815Z,1.00
2022-08-22T00:37:07.613Z,0.98
2022-08-22T00:39:40.125Z,1.15
2022-08-22T00:42:31.453Z,0.90
2022-08-22T00:45:40.283Z,1.13
2022-08-22T00:48:23.451Z,1.13
2022-08-22T00:51:10.845Z,0.98
2022-08-22T00:53:47.655Z,1.00
2022-08-22T00:56:48.625Z,0.80
2022-08-22T00:59:51.351Z,1.35
2022-08-22T01:02:33.127Z,1.27
2022-08-22T01:05:17.128Z,1.00
2022-08-22T01:08:08.977Z,1.10
2022-08-22T01:10:50.271Z,1.33
2022-08-22T01:13:40.246Z,1.02
2022-08-22T01:16:32.794Z,0.85
2022-08-22T01:19:32.007Z,0.90
2022-08-22T01:22:52.621Z,1.10
2022-08-22T01:25:57.244Z,0.95
2022-08-22T01:29:03.820Z,1.10
2022-08-22T01:32:10.147Z,1.25
2022-08-22T01:35:13.595Z,1.10
2022-08-22T01:38:00.412Z,1.20
2022-08-22T01:40:55.334Z,1.30
2022-08-22T01:43:59.329Z,0.90
2022-08-22T01:46:34.777Z,0.98
2022-08-22T01:49:11.108Z,1.05
2022-08-22T01:51:48.908Z,1.30
2022-08-22T01:54:27.873Z,0.93
2022-08-22T01:57:03.291Z,1.00
2022-08-22T01:59:42.461Z,1.20
2022-08-22T02:02:24.034Z,0.93
2022-08-22T02:04:59.706Z,1.00
2022-08-22T02:07:35.328Z,1.15
2022-08-22T02:10:12.505Z,1.08
2022-08-22T02:12:49.947Z,1.00
2022-08-22T02:15:22.748Z,1.15
2022-08-22T02:18:03.412Z,1.35
2022-08-22T02:20:37.479Z,1.35
2022-08-22T02:23:18.519Z,1.00
2022-08-22T02:25:53.820Z,1.05
2022-08-22T02:28:32.952Z,1.10
2022-08-22T02:31:10.345Z,1.13
2022-08-22T02:33:53.823Z,1.30
2022-08-22T02:36:26.820Z,1.30
2022-08-22T02:39:05.738Z,1.40
2022-08-22T02:41:44.756Z,1.40
2022-08-22T02:44:20.675Z,1.48
2022-08-22T02:46:56.532Z,0.90
2022-08-22T02:49:34.227Z,0.98
2022-08-22T02:52:09.224Z,1.50
2022-08-22T02:54:43.832Z,1.10
2022-08-22T02:57:19.966Z,1.10
2022-08-22T03:00:25.021Z,0.88
2022-08-22T03:03:04.689Z,1.15
2022-08-22T03:05:51.587Z,1.05
2022-08-22T03:08:24.765Z,1.35
2022-08-22T03:11:08.209Z,1.13
2022-08-22T03:13:47.512Z,1.10
2022-08-22T03:16:22.999Z,1.02
2022-08-22T03:19:00.187Z,1.20
2022-08-22T03:21:33.791Z,1.00
2022-08-22T03:24:08.676Z,1.35
2022-08-22T03:26:49.080Z,1.25
2022-08-22T03:29:20.974Z,1.13
2022-08-22T03:32:09.942Z,1.00
2022-08-22T03:34:39.667Z,1.10
2022-08-22T03:37:16.463Z,1.20
2022-08-22T03:39:55.922Z,1.20
2022-08-22T03:42:56.787Z,0.93
2022-08-22T03:45:48.262Z,1.67
2022-08-22T03:49:07.107Z,1.05
2022-08-22T03:51:49.040Z,1.58
2022-08-22T03:54:34.921Z,1.30
2022-08-22T03:57:33.304Z,1.10
2022-08-22T04:00:23.730Z,1.13
2022-08-22T04:03:13.824Z,1.00
2022-08-22T04:06:07.841Z,1.30
2022-08-22T04:09:16.504Z,1.27
2022-08-22T04:12:11.319Z,1.33
2022-08-22T04:15:27.163Z,1.30
2022-08-22T04:18:16.931Z,1.58
2022-08-22T04:21:09.830Z,1.30
2022-08-22T04:23:52.924Z,1.45
2022-08-22T04:26:33.214Z,1.30
2022-08-22T04:29:08.545Z,1.48
2022-08-22T04:31:46.724Z,1.63
2022-08-22T04:34:23.202Z,1.65
2022-08-22T04:36:56.329Z,1.65
2022-08-22T04:39:31.244Z,1.20
2022-08-22T04:42:30.759Z,1.50
2022-08-22T04:44:59.184Z,1.33
2022-08-22T04:47:32.704Z,1.48
2022-08-22T04:50:06.465Z,1.20
2022-08-22T04:52:57.564Z,1.60
2022-08-22T04:55:33.838Z,1.65
2022-08-22T04:58:13.022Z,1.60
2022-08-22T05:00:45.955Z,2.17
2022-08-22T05:03:20.850Z,1.42
2022-08-22T05:05:52.956Z,1.75
2022-08-22T05:08:27.726Z,1.55
2022-08-22T05:10:56.200Z,1.50
2022-08-22T05:13:29.273Z,2.10
2022-08-22T05:16:03.025Z,1.55
2022-08-22T05:18:36.470Z,1.20
2022-08-22T05:21:11.124Z,1.40
2022-08-22T05:23:49.308Z,2.03
2022-08-22T05:26:19.198Z,1.70
2022-08-22T05:28:53.323Z,1.65
2022-08-22T05:31:27.324Z,2.00
2022-08-22T05:33:59.830Z,2.00
2022-08-22T05:36:33.437Z,1.65
2022-08-22T05:39:05.951Z,2.35
2022-08-22T05:41:37.606Z,1.65
2022-08-22T05:44:08.735Z,2.00
2022-08-22T05:46:43.325Z,1.40
2022-08-22T05:49:19.756Z,1.73
2022-08-22T05:51:56.136Z,2.00
2022-08-22T05:54:33.469Z,1.52
2022-08-22T05:57:11.919Z,1.70
2022-08-22T05:59:43.534Z,1.70
2022-08-22T06:02:19.340Z,1.95
2022-08-22T06:04:51.879Z,1.80
2022-08-22T06:07:24.550Z,2.03
2022-08-22T06:10:08.703Z,1.67
2022-08-22T06:12:40.277Z,2.63
2022-08-22T06:15:20.801Z,1.75
2022-08-22T06:17:52.026Z,1.55
2022-08-22T06:20:23.864Z,1.50
2022-08-22T06:22:56.718Z,1.63
2022-08-22T06:25:29.000Z,1.58
2022-08-22T06:27:59.810Z,1.63
2022-08-22T06:30:31.614Z,1.77
2022-08-22T06:33:04.583Z,2.20
2022-08-22T06:35:50.547Z,1.95
2022-08-22T06:38:21.488Z,1.55
2022-08-22T06:40:52.427Z,1.52
2022-08-22T06:43:24.436Z,1.60
2022-08-22T06:45:53.610Z,1.60
2022-08-22T06:48:24.744Z,1.88
2022-08-22T06:50:58.506Z,1.70
2022-08-22T06:53:32.960Z,2.65
2022-08-22T06:56:05.630Z,1.90
2022-08-22T06:58:39.611Z,2.15
2022-08-22T07:01:15.812Z,1.80
2022-08-22T07:03:47.557Z,1.80
2022-08-22T07:06:18.027Z,2.33
2022-08-22T07:08:53.526Z,2.15
2022-08-22T07:11:28.052Z,2.30
2022-08-22T07:14:01.785Z,1.88
2022-08-22T07:16:34.903Z,2.95
2022-08-22T07:19:03.442Z,1.77
2022-08-22T07:21:42.693Z,2.08
2022-08-22T07:24:16.210Z,1.95
2022-08-22T07:26:57.150Z,2.45
2022-08-22T07:29:35.155Z,2.25
2022-08-22T07:32:12.176Z,2.22
2022-08-22T07:34:56.059Z,2.13
2022-08-22T07:37:31.751Z,1.90
2022-08-22T07:40:09.702Z,1.85
2022-08-22T07:42:44.865Z,2.03
2022-08-22T07:45:20.562Z,2.20
2022-08-22T07:48:02.901Z,2.50
2022-08-22T07:50:35.729Z,1.80
2022-08-22T07:53:13.485Z,1.83
2022-08-22T07:55:49.464Z,2.28
2022-08-22T07:58:19.588Z,2.05
2022-08-22T08:00:49.692Z,2.28
2022-08-22T08:03:18.622Z,2.20
2022-08-22T08:05:47.081Z,2.05
2022-08-22T08:08:21.064Z,2.40
2022-08-22T08:10:52.561Z,1.73
2022-08-22T08:13:25.194Z,2.50
2022-08-22T08:15:53.680Z,2.88
2022-08-22T08:18:25.940Z,3.53
2022-08-22T08:20:58.452Z,2.88
2022-08-22T08:23:30.208Z,2.67
2022-08-22T08:26:08.297Z,2.60
2022-08-22T08:28:41.153Z,2.67
2022-08-22T08:31:24.767Z,2.45
2022-08-22T08:34:01.282Z,2.65
2022-08-22T08:36:37.813Z,2.83
2022-08-22T08:39:21.987Z,2.55
2022-08-22T08:42:55.970Z,2.97
2022-08-22T08:45:46.568Z,2.38
2022-08-22T08:48:38.690Z,2.75
2022-08-22T08:51:38.952Z,2.78
2022-08-22T08:54:30.592Z,2.60
2022-08-22T08:57:16.990Z,2.40
2022-08-22T08:59:51.498Z,2.58
2022-08-22T09:02:56.858Z,3.03
2022-08-22T09:06:10.847Z,2.50
2022-08-22T09:08:57.210Z,2.65
2022-08-22T09:12:10.703Z,2.55
2022-08-22T09:15:14.157Z,2.80
2022-08-22T09:18:09.414Z,2.72
2022-08-22T09:21:01.041Z,2.42
2022-08-22T09:24:05.289Z,3.40
2022-08-22T09:26:44.944Z,2.80
2022-08-22T09:29:33.547Z,2.17
2022-08-22T09:32:13.146Z,2.30
2022-08-22T09:34:59.035Z,2.80
2022-08-22T09:37:36.339Z,2.78
2022-08-22T09:40:17.303Z,3.10
2022-08-22T09:43:03.345Z,2.90
2022-08-22T09:45:45.325Z,2.30
2022-08-22T09:48:38.970Z,2.10
2022-08-22T09:51:32.630Z,2.55
2022-08-22T09:54:11.957Z,3.60
2022-08-22T09:56:49.968Z,3.13
2022-08-22T09:59:25.552Z,2.80
2022-08-22T10:02:00.125Z,2.40
2022-08-22T10:04:46.576Z,2.83
2022-08-22T10:07:53.936Z,2.25
2022-08-22T10:10:35.786Z,2.22
2022-08-22T10:13:12.857Z,2.08
2022-08-22T10:15:46.484Z,2.47
2022-08-22T10:18:32.058Z,2.22
2022-08-22T10:21:09.507Z,2.55
2022-08-22T10:23:46.023Z,2.30
2022-08-22T10:26:25.574Z,2.47
2022-08-22T10:28:58.012Z,1.90
2022-08-22T10:31:46.066Z,2.20
2022-08-22T10:34:30.950Z,2.30
2022-08-22T10:37:10.381Z,2.05
2022-08-22T10:39:48.636Z,2.15
2022-08-22T10:42:27.985Z,2.20
2022-08-22T10:45:15.562Z,2.65
2022-08-22T10:48:31.604Z,2.67
2022-08-22T10:51:08.956Z,2.22
2022-08-22T10:53:58.610Z,2.08
2022-08-22T10:56:35.438Z,1.90
2022-08-22T10:59:17.337Z,1.90
2022-08-22T11:01:54.174Z,2.15
2022-08-22T11:04:35.233Z,2.25
2022-08-22T11:07:15.647Z,2.17
2022-08-22T11:09:44.989Z,2.10
2022-08-22T11:12:23.322Z,2.20
2022-08-22T11:15:07.343Z,2.03
2022-08-22T11:18:20.341Z,1.83
2022-08-22T11:21:00.097Z,1.88
2022-08-22T11:23:40.087Z,1.83
2022-08-22T11:26:33.672Z,1.70
2022-08-22T11:29:25.449Z,2.70
2022-08-22T11:32:07.856Z,1.63
2022-08-22T11:34:49.565Z,1.90
2022-08-22T11:37:42.522Z,1.80
2022-08-22T11:40:25.892Z,1.70
2022-08-22T11:43:03.192Z,1.80
2022-08-22T11:45:40.835Z,1.80
2022-08-22T11:48:17.679Z,2.25
2022-08-22T11:50:52.055Z,1.92
2022-08-22T11:53:31.716Z,2.00
2022-08-22T11:56:18.005Z,2.08
2022-08-22T11:58:56.599Z,1.70
2022-08-22T12:01:35.567Z,1.60
2022-08-22T12:04:13.139Z,1.90
2022-08-22T12:06:57.456Z,1.70
2022-08-22T12:09:45.403Z,1.83
2022-08-22T12:12:27.867Z,1.65
2022-08-22T12:15:02.159Z,1.67
2022-08-22T12:18:05.389Z,1.90
2022-08-22T12:20:55.683Z,1.90
2022-08-22T12:23:48.990Z,1.58
2022-08-22T12:26:28.799Z,1.60
2022-08-22T12:29:15.504Z,1.58
2022-08-22T12:32:28.307Z,1.70
2022-08-22T12:35:17.791Z,1.38
2022-08-22T12:37:56.480Z,1.55
2022-08-22T12:40:39.750Z,2.30
2022-08-22T12:43:29.499Z,1.60
2022-08-22T12:46:18.404Z,1.60
2022-08-22T12:49:08.799Z,1.75
2022-08-22T12:51:51.909Z,1.63
2022-08-22T12:54:51.613Z,1.70
2022-08-22T12:57:33.290Z,1.50
2022-08-22T13:00:22.854Z,1.90
2022-08-22T13:02:54.857Z,1.90
2022-08-22T13:05:26.208Z,2.20
2022-08-22T13:08:01.232Z,1.65
2022-08-22T13:10:46.030Z,1.65
2022-08-22T13:13:31.646Z,1.50
2022-08-22T13:16:08.543Z,1.67
2022-08-22T13:18:39.386Z,1.52
2022-08-22T13:21:16.011Z,1.75
2022-08-22T13:23:53.180Z,1.77
2022-08-22T13:26:31.601Z,1.80
2022-08-22T13:29:25.157Z,1.73
2022-08-22T13:31:58.994Z,1.48
2022-08-22T13:34:39.873Z,1.60
2022-08-22T13:37:15.760Z,1.50
2022-08-22T13:39:49.174Z,1.50
2022-08-22T13:42:30.051Z,1.63
2022-08-22T13:45:04.619Z,1.40
2022-08-22T13:47:39.237Z,1.75
2022-08-22T13:50:14.728Z,1.45
2022-08-22T13:52:52.553Z,1.40
2022-08-22T13:55:37.372Z,1.52
2022-08-22T13:58:21.826Z,2.08
2022-08-22T14:01:25.388Z,1.60
2022-08-22T14:04:00.119Z,1.83
2022-08-22T14:06:38.000Z,2.00
2022-08-22T14:09:31.494Z,1.50
2022-08-22T14:12:13.601Z,1.67
2022-08-22T14:14:46.234Z,1.52
2022-08-22T14:17:21.583Z,1.80
2022-08-22T14:19:59.561Z,1.60
2022-08-22T14:22:35.110Z,1.67
2022-08-22T14:25:08.569Z,1.83
2022-08-22T14:27:43.829Z,1.58
2022-08-22T14:30:18.635Z,1.65
2022-08-22T14:32:51.385Z,1.40
2022-08-22T14:35:35.371Z,1.63
2022-08-22T14:38:27.394Z,1.80
2022-08-22T14:41:03.652Z,1.50
2022-08-22T14:43:52.440Z,1.35
2022-08-22T14:46:26.606Z,1.70
2022-08-22T14:49:24.823Z,1.83
2022-08-22T14:51:59.247Z,1.85
2022-08-22T14:54:30.606Z,1.70
2022-08-22T14:57:00.721Z,1.48
2022-08-22T14:59:50.119Z,1.70
2022-08-22T15:02:26.567Z,1.60
2022-08-22T15:04:56.898Z,1.40
2022-08-22T15:07:27.820Z,2.00
2022-08-22T15:10:01.200Z,1.67
2022-08-22T15:12:34.142Z,1.50
2022-08-22T15:15:09.451Z,1.58
2022-08-22T15:17:43.979Z,1.60
2022-08-22T15:20:28.529Z,1.27
2022-08-22T15:22:59.542Z,1.35
2022-08-22T15:25:32.452Z,1.67
2022-08-22T15:28:05.738Z,1.60
2022-08-22T15:30:44.221Z,1.98
2022-08-22T15:33:18.909Z,1.85
2022-08-22T15:35:48.797Z,2.40
2022-08-22T15:38:32.370Z,1.52
2022-08-22T15:41:47.287Z,1.65
2022-08-22T15:44:33.098Z,1.70
2022-08-22T15:47:12.065Z,1.80
2022-08-22T15:49:55.514Z,1.27
2022-08-22T15:52:29.239Z,1.80
2022-08-22T15:55:30.008Z,2.00
2022-08-22T15:58:07.274Z,1.50
2022-08-22T16:00:43.819Z,1.55
2022-08-22T16:03:26.223Z,1.60
2022-08-22T16:05:58.389Z,1.55
2022-08-22T16:08:32.759Z,1.63
2022-08-22T16:11:33.608Z,1.77
2022-08-22T16:14:23.809Z,1.60
2022-08-22T16:17:01.050Z,1.70
2022-08-22T16:19:32.355Z,1.50
2022-08-22T16:22:18.962Z,1.60
2022-08-22T16:25:02.811Z,1.40
2022-08-22T16:27:31.445Z,1.35
2022-08-22T16:30:11.975Z,1.50
2022-08-22T16:32:40.727Z,1.42
2022-08-22T16:35:10.177Z,1.60
2022-08-22T16:37:50.195Z,1.48
2022-08-22T16:40:28.234Z,1.42
2022-08-22T16:43:16.383Z,1.38
2022-08-22T16:45:46.343Z,1.27
2022-08-22T16:48:34.585Z,1.95
2022-08-22T16:51:11.499Z,1.58
2022-08-22T16:54:09.738Z,1.67
2022-08-22T16:57:04.074Z,1.83
2022-08-22T16:59:48.795Z,1.33
2022-08-22T17:02:48.344Z,1.83
2022-08-22T17:05:37.401Z,1.48
2022-08-22T17:08:24.154Z,1.30
2022-08-22T17:11:03.881Z,1.58
2022-08-22T17:13:49.138Z,1.40
2022-08-22T17:16:33.031Z,1.48
2022-08-22T17:19:14.015Z,1.52
2022-08-22T17:21:50.667Z,1.58
2022-08-22T17:24:34.371Z,1.77
2022-08-22T17:27:08.760Z,1.92
2022-08-22T17:29:58.280Z,1.80
2022-08-22T17:32:38.101Z,1.95
2022-08-22T17:35:17.802Z,1.73
2022-08-22T17:37:54.734Z,1.75
2022-08-22T17:40:40.598Z,1.83
2022-08-22T17:43:28.168Z,1.88
2022-08-22T17:46:22.595Z,2.00
2022-08-22T17:48:54.736Z,2.72
2022-08-22T17:51:28.874Z,1.50
2022-08-22T17:54:02.303Z,1.80
2022-08-22T17:56:40.374Z,1.75
2022-08-22T17:59:14.676Z,1.77
2022-08-22T18:01:50.799Z,1.50
2022-08-22T18:04:33.283Z,1.80
2022-08-22T18:07:45.837Z,1.75
2022-08-22T18:10:23.104Z,1.30
2022-08-22T18:13:03.474Z,1.30
2022-08-22T18:15:42.935Z,1.95
2022-08-22T18:18:19.847Z,1.90
2022-08-22T18:20:53.521Z,1.90
2022-08-22T18:23:35.972Z,1.88
2022-08-22T18:26:21.834Z,1.70
2022-08-22T18:28:57.758Z,1.55
2022-08-22T18:31:38.688Z,2.15
2022-08-22T18:34:20.121Z,2.90
2022-08-22T18:36:55.550Z,1.55
2022-08-22T18:39:29.922Z,1.70
2022-08-22T18:42:03.652Z,1.67
2022-08-22T18:44:34.991Z,1.60
2022-08-22T18:47:12.871Z,1.80
2022-08-22T18:49:46.002Z,1.65
2022-08-22T18:52:21.708Z,2.15
2022-08-22T18:55:23.346Z,1.80
2022-08-22T18:58:05.497Z,2.10
2022-08-22T19:00:53.277Z,1.60
2022-08-22T19:03:40.283Z,1.58
2022-08-22T19:06:32.929Z,1.65
2022-08-22T19:09:32.001Z,2.08
2022-08-22T19:12:08.174Z,1.65
2022-08-22T19:15:01.971Z,1.92
2022-08-22T19:17:59.022Z,1.58
2022-08-22T19:20:54.486Z,1.60
2022-08-22T19:23:43.364Z,1.38
2022-08-22T19:26:28.080Z,1.75
2022-08-22T19:28:58.452Z,1.45
2022-08-22T19:31:45.571Z,1.50
2022-08-22T19:34:18.918Z,1.40
2022-08-22T19:37:07.884Z,1.88
2022-08-22T19:39:54.508Z,1.65
2022-08-22T19:42:38.879Z,1.80
2022-08-22T19:45:18.686Z,1.73
2022-08-22T19:47:56.636Z,1.60
2022-08-22T19:50:34.399Z,1.70
2022-08-22T19:53:15.810Z,1.30
2022-08-22T19:56:08.525Z,1.67
2022-08-22T19:58:52.281Z,1.45
2022-08-22T20:01:43.900Z,1.63
2022-08-22T20:04:39.486Z,1.80
2022-08-22T20:07:18.335Z,1.55
2022-08-22T20:09:53.753Z,1.83
2022-08-22T20:12:33.084Z,1.50
2022-08-22T20:15:16.342Z,1.80
2022-08-22T20:17:44.735Z,1.70
2022-08-22T20:20:35.520Z,1.63
2022-08-22T20:23:16.201Z,1.83
2022-08-22T20:25:49.269Z,1.42
2022-08-22T20:28:34.517Z,1.77
2022-08-22T20:31:07.018Z,1.67
2022-08-22T20:33:37.800Z,1.40
2022-08-22T20:36:27.293Z,1.67
2022-08-22T20:39:04.207Z,1.58
2022-08-22T20:41:35.553Z,1.58
2022-08-22T20:44:13.199Z,1.60
2022-08-22T20:46:53.406Z,1.70
2022-08-22T20:49:24.914Z,1.48
2022-08-22T20:51:56.203Z,1.60
2022-08-22T20:54:27.864Z,1.70
2022-08-22T20:56:58.242Z,1.65
2022-08-22T20:59:30.584Z,1.55
2022-08-22T21:02:07.627Z,1.40
2022-08-22T21:04:42.936Z,1.75
2022-08-22T21:07:11.257Z,1.20
2022-08-22T21:09:58.281Z,1.70
2022-08-22T21:12:27.703Z,1.67
2022-08-22T21:14:55.791Z,1.60
2022-08-22T21:17:29.052Z,1.50
2022-08-22T21:20:18.046Z,1.90
2022-08-22T21:22:46.281Z,1.58
2022-08-22T21:25:15.999Z,1.70
2022-08-22T21:27:48.859Z,1.65
2022-08-22T21:30:23.903Z,1.15
2022-08-22T21:32:56.230Z,1.73
2022-08-22T21:35:29.568Z,1.50
2022-08-22T21:37:59.071Z,1.70
2022-08-22T21:40:35.215Z,1.48
2022-08-22T21:43:07.682Z,1.40
2022-08-22T21:45:42.314Z,1.45
2022-08-22T21:48:32.961Z,1.85
2022-08-22T21:51:22.656Z,2.03
2022-08-22T21:53:56.090Z,1.40
2022-08-22T21:56:40.674Z,1.52
2022-08-22T21:59:24.997Z,1.80
2022-08-22T22:01:53.559Z,1.88
2022-08-22T22:04:24.096Z,2.00
2022-08-22T22:06:52.132Z,1.90
2022-08-22T22:09:20.242Z,1.90
2022-08-22T22:11:50.151Z,1.30
2022-08-22T22:14:18.445Z,1.70
2022-08-22T22:16:46.526Z,1.40
2022-08-22T22:19:14.900Z,1.80
2022-08-22T22:21:43.017Z,1.60
2022-08-22T22:24:11.145Z,2.85
2022-08-22T22:26:39.351Z,1.90
2022-08-22T22:29:10.689Z,1.35
2022-08-22T22:31:38.817Z,1.30
2022-08-22T22:34:06.930Z,1.52
2022-08-22T22:36:35.301Z,1.55
2022-08-22T22:39:06.146Z,1.60
2022-08-22T22:41:34.282Z,1.42
2022-08-22T22:44:02.707Z,1.85
2022-08-22T22:46:32.378Z,1.83
2022-08-22T22:49:00.510Z,1.60
2022-08-22T22:51:28.612Z,2.92
2022-08-22T22:53:57.135Z,1.33
2022-08-22T22:56:25.537Z,1.60
2022-08-22T22:58:59.299Z,1.48
2022-08-22T23:01:33.384Z,1.70
2022-08-22T23:04:05.775Z,1.83
2022-08-22T23:06:34.389Z,1.70
2022-08-22T23:09:02.548Z,1.88
2022-08-22T23:11:32.284Z,1.40
2022-08-22T23:14:02.159Z,1.75
2022-08-22T23:16:35.026Z,1.98
2022-08-22T23:19:10.217Z,1.30
2022-08-22T23:21:38.638Z,2.05
2022-08-22T23:24:07.179Z,1.50
2022-08-22T23:26:36.119Z,1.85
2022-08-22T23:29:06.208Z,1.70
2022-08-22T23:31:36.519Z,1.75
2022-08-22T23:34:07.788Z,1.75
2022-08-22T23:36:38.654Z,1.40
2022-08-22T23:39:08.425Z,1.80
2022-08-22T23:41:37.440Z,1.40
2022-08-22T23:44:07.493Z,1.75
2022-08-22T23:46:37.486Z,1.63
2022-08-22T23:49:06.943Z,1.63
2022-08-22T23:51:36.840Z,1.70
2022-08-22T23:54:06.037Z,1.92
2022-08-22T23:56:36.389Z,1.88
2022-08-22T23:59:13.459Z,1.60
